Aérodrome :
LOGIN :

S'inscrire | Disclaimer

   EN    FR    IT 

 










Légende :    VFR   VFR Marginal   IFR   IFR Intensif   IFR Très Intensif
Visi : 
Plafond : 
>= 8 km
>= 3000ft
5 à 8 km
1000 à 3000 ft
1500m à 5 km
500 à 1000 ft
800 à 1500m
200 à 500 ft
< 800m
< 200 ft
Symboles :   Orages  Brouillard  Fortes neiges  Fortes précipitations  Vent > 20 kt
SIGMETs :   Divers  Orages  Givrage  Turbulence  Onde Orograph.  Cendres Volcan.






- Altitude de l'aérodrome : 162 ft
- Code IATA : BOD


LFBD - Bordeaux / Merignac

DERNIER METAR :
  • 220630Z AUTO 15007KT CAVOK 15/14 Q1011 TEMPO 4000 BR BKN004

METARs EXPIRÉS :
  • 220600Z AUTO 15009KT 9999 FEW005 BKN078 BKN094 15/14 Q1011 TEMPO 4000 BR BKN004
  • 220530Z AUTO 15007KT 9000 FEW004 BKN080 BKN100 15/14 Q1011 NOSIG
  • 220500Z AUTO 15008KT 9000 FEW005 15/14 Q1011 TEMPO 3000 BR OVC003
  • 220430Z AUTO 14010KT CAVOK 15/14 Q1011 TEMPO 3000 BR OVC003
  • 220400Z AUTO 14007KT CAVOK 15/14 Q1010 TEMPO 3000 BR OVC003

TAF TAF LFBD
Valide du 22 à 06h jusqu'au 23 à 12h UTC


220500Z 2206/2312 15008KT CAVOK TX23/2214Z TN15/2206Z
TEMPO 2206/2208 4000 BR BKN004
TEMPO 2212/2224 -SHRA BKN030TCU
PROB30
TEMPO 2214/2224 VRB15G25KT 3000 TSRA BKN020CB
TEMPO 2306/2312 3000 SHRA FEW020CB BKN030TCU
ATIS : +33 5 57 92 81 04



MET'MAP, la Météo Aéronautique d'un coup d'oeil ! - Copyright ORBIFLY Décembre 2007 - Disclaimer

ORBIFLY MET'MAP TEAM :

Programmation & Développement : Alexandra Zaïnal
Sur une idée originale de : Baudouin d'Aumeries
Assistance à la programmation : Marc-Olivier Méhu
Soutien technique & logistique : Manuel Goepfert

Contact : metmap@orbifly.com




SOURCES & CREDITS :

   NOAA